sensor_id;sensor_type;location;lat;lon;timestamp;temperature;humidity
44823;DHT22;51097;51.984;5.650;2022-11-15T00:01:22;11.30;99.90
44823;DHT22;51097;51.984;5.650;2022-11-15T00:03:50;11.20;99.90
44823;DHT22;51097;51.984;5.650;2022-11-15T00:06:16;11.30;99.90
44823;DHT22;51097;51.984;5.650;2022-11-15T00:08:41;11.10;99.90
44823;DHT22;51097;51.984;5.650;2022-11-15T00:11:10;11.20;99.90
44823;DHT22;51097;51.984;5.650;2022-11-15T00:13:36;11.20;99.90
44823;DHT22;51097;51.984;5.650;2022-11-15T00:16:02;11.30;99.90
44823;DHT22;51097;51.984;5.650;2022-11-15T00:18:29;11.30;99.90
44823;DHT22;51097;51.984;5.650;2022-11-15T00:20:55;11.30;99.90
44823;DHT22;51097;51.984;5.650;2022-11-15T00:23:21;11.30;99.90
44823;DHT22;51097;51.984;5.650;2022-11-15T00:25:47;11.40;99.90
44823;DHT22;51097;51.984;5.650;2022-11-15T00:28:12;11.40;99.90
44823;DHT22;51097;51.984;5.650;2022-11-15T00:30:38;11.40;99.90
44823;DHT22;51097;51.984;5.650;2022-11-15T00:33:04;11.50;99.90
44823;DHT22;51097;51.984;5.650;2022-11-15T00:35:33;11.50;99.90
44823;DHT22;51097;51.984;5.650;2022-11-15T00:38:00;11.40;99.90
44823;DHT22;51097;51.984;5.650;2022-11-15T00:40:26;11.60;99.90
44823;DHT22;51097;51.984;5.650;2022-11-15T00:42:52;11.60;99.90
44823;DHT22;51097;51.984;5.650;2022-11-15T00:45:17;11.50;99.90
44823;DHT22;51097;51.984;5.650;2022-11-15T00:47:46;11.50;99.90
44823;DHT22;51097;51.984;5.650;2022-11-15T00:50:12;11.50;99.90
44823;DHT22;51097;51.984;5.650;2022-11-15T00:52:38;11.50;99.90
44823;DHT22;51097;51.984;5.650;2022-11-15T00:55:04;11.50;99.90
44823;DHT22;51097;51.984;5.650;2022-11-15T00:57:30;11.60;99.90
44823;DHT22;51097;51.984;5.650;2022-11-15T00:59:56;11.60;99.90
44823;DHT22;51097;51.984;5.650;2022-11-15T01:02:21;11.70;99.90
44823;DHT22;51097;51.984;5.650;2022-11-15T01:04:47;11.60;99.90
44823;DHT22;51097;51.984;5.650;2022-11-15T01:07:12;11.70;99.90
44823;DHT22;51097;51.984;5.650;2022-11-15T01:09:38;11.70;99.90
44823;DHT22;51097;51.984;5.650;2022-11-15T01:12:04;11.70;99.90
44823;DHT22;51097;51.984;5.650;2022-11-15T01:14:29;11.70;99.90
44823;DHT22;51097;51.984;5.650;2022-11-15T01:16:55;11.70;99.90
44823;DHT22;51097;51.984;5.650;2022-11-15T01:19:20;11.70;99.90
44823;DHT22;51097;51.984;5.650;2022-11-15T01:21:49;11.70;99.90
44823;DHT22;51097;51.984;5.650;2022-11-15T01:24:14;11.80;99.90
44823;DHT22;51097;51.984;5.650;2022-11-15T01:26:40;11.70;99.90
44823;DHT22;51097;51.984;5.650;2022-11-15T01:29:05;11.80;99.90
44823;DHT22;51097;51.984;5.650;2022-11-15T01:31:31;11.80;99.90
44823;DHT22;51097;51.984;5.650;2022-11-15T01:33:56;11.80;99.90
44823;DHT22;51097;51.984;5.650;2022-11-15T01:36:22;11.90;99.90
44823;DHT22;51097;51.984;5.650;2022-11-15T01:38:56;11.90;99.90
44823;DHT22;51097;51.984;5.650;2022-11-15T01:41:28;12.00;99.90
44823;DHT22;51097;51.984;5.650;2022-11-15T01:46:39;12.10;99.90
44823;DHT22;51097;51.984;5.650;2022-11-15T01:49:14;12.20;99.90
44823;DHT22;51097;51.984;5.650;2022-11-15T01:51:41;12.10;99.90
44823;DHT22;51097;51.984;5.650;2022-11-15T01:54:10;12.10;99.90
44823;DHT22;51097;51.984;5.650;2022-11-15T01:57:04;12.20;99.90
44823;DHT22;51097;51.984;5.650;2022-11-15T01:59:28;12.20;99.90
44823;DHT22;51097;51.984;5.650;2022-11-15T02:01:54;12.20;99.90
44823;DHT22;51097;51.984;5.650;2022-11-15T02:04:24;12.20;99.90
44823;DHT22;51097;51.984;5.650;2022-11-15T02:06:50;12.30;99.90
44823;DHT22;51097;51.984;5.650;2022-11-15T02:09:17;12.40;99.90
44823;DHT22;51097;51.984;5.650;2022-11-15T02:11:44;12.30;99.90
44823;DHT22;51097;51.984;5.650;2022-11-15T02:14:11;12.40;99.90
44823;DHT22;51097;51.984;5.650;2022-11-15T02:22:08;12.40;99.90
44823;DHT22;51097;51.984;5.650;2022-11-15T02:25:08;12.40;99.90
44823;DHT22;51097;51.984;5.650;2022-11-15T02:33:23;12.50;99.90
44823;DHT22;51097;51.984;5.650;2022-11-15T02:36:02;12.50;99.90
44823;DHT22;51097;51.984;5.650;2022-11-15T02:38:51;12.50;99.90
44823;DHT22;51097;51.984;5.650;2022-11-15T02:41:31;12.60;99.90
44823;DHT22;51097;51.984;5.650;2022-11-15T02:44:04;12.60;99.90
44823;DHT22;51097;51.984;5.650;2022-11-15T02:46:37;12.60;99.90
44823;DHT22;51097;51.984;5.650;2022-11-15T02:49:25;12.60;99.90
44823;DHT22;51097;51.984;5.650;2022-11-15T02:51:55;12.70;99.90
44823;DHT22;51097;51.984;5.650;2022-11-15T02:54:22;12.70;99.90
44823;DHT22;51097;51.984;5.650;2022-11-15T02:56:49;12.80;99.90
44823;DHT22;51097;51.984;5.650;2022-11-15T02:59:32;12.80;99.90
44823;DHT22;51097;51.984;5.650;2022-11-15T03:02:18;12.90;99.90
44823;DHT22;51097;51.984;5.650;2022-11-15T03:04:56;12.90;99.90
44823;DHT22;51097;51.984;5.650;2022-11-15T03:07:32;12.90;99.90
44823;DHT22;51097;51.984;5.650;2022-11-15T03:10:06;12.90;99.90
44823;DHT22;51097;51.984;5.650;2022-11-15T03:13:07;12.90;99.90
44823;DHT22;51097;51.984;5.650;2022-11-15T03:15:31;13.00;99.90
44823;DHT22;51097;51.984;5.650;2022-11-15T03:18:17;13.10;99.90
44823;DHT22;51097;51.984;5.650;2022-11-15T03:20:46;13.10;99.90
44823;DHT22;51097;51.984;5.650;2022-11-15T03:23:13;13.10;99.90
44823;DHT22;51097;51.984;5.650;2022-11-15T03:25:41;13.10;99.90
44823;DHT22;51097;51.984;5.650;2022-11-15T03:28:09;13.20;99.90
44823;DHT22;51097;51.984;5.650;2022-11-15T03:30:37;13.10;99.90
44823;DHT22;51097;51.984;5.650;2022-11-15T03:33:05;13.20;99.90
44823;DHT22;51097;51.984;5.650;2022-11-15T03:35:37;13.20;99.90
44823;DHT22;51097;51.984;5.650;2022-11-15T03:38:25;13.30;99.90
44823;DHT22;51097;51.984;5.650;2022-11-15T03:41:01;13.30;99.90
44823;DHT22;51097;51.984;5.650;2022-11-15T03:46:18;13.30;99.90
44823;DHT22;51097;51.984;5.650;2022-11-15T03:48:51;13.40;99.90
44823;DHT22;51097;51.984;5.650;2022-11-15T03:51:19;13.30;99.90
44823;DHT22;51097;51.984;5.650;2022-11-15T03:53:45;13.40;99.90
44823;DHT22;51097;51.984;5.650;2022-11-15T03:56:11;13.50;99.90
44823;DHT22;51097;51.984;5.650;2022-11-15T03:58:36;13.60;99.90
44823;DHT22;51097;51.984;5.650;2022-11-15T04:01:02;13.60;99.90
44823;DHT22;51097;51.984;5.650;2022-11-15T04:03:27;13.70;99.90
44823;DHT22;51097;51.984;5.650;2022-11-15T04:05:53;13.80;99.90
44823;DHT22;51097;51.984;5.650;2022-11-15T04:08:18;13.80;99.90
44823;DHT22;51097;51.984;5.650;2022-11-15T04:10:44;13.90;99.90
44823;DHT22;51097;51.984;5.650;2022-11-15T04:13:09;13.80;99.90
44823;DHT22;51097;51.984;5.650;2022-11-15T04:15:35;13.90;99.90
44823;DHT22;51097;51.984;5.650;2022-11-15T04:18:01;13.90;99.90
44823;DHT22;51097;51.984;5.650;2022-11-15T04:20:30;13.90;99.90
44823;DHT22;51097;51.984;5.650;2022-11-15T04:23:17;14.00;99.90
44823;DHT22;51097;51.984;5.650;2022-11-15T04:26:08;14.00;99.90
44823;DHT22;51097;51.984;5.650;2022-11-15T04:28:35;14.10;99.90
44823;DHT22;51097;51.984;5.650;2022-11-15T04:31:21;14.00;99.90
44823;DHT22;51097;51.984;5.650;2022-11-15T04:33:46;14.20;99.90
44823;DHT22;51097;51.984;5.650;2022-11-15T04:36:12;14.40;99.90
44823;DHT22;51097;51.984;5.650;2022-11-15T04:38:56;14.20;99.90
44823;DHT22;51097;51.984;5.650;2022-11-15T04:41:21;14.30;99.90
44823;DHT22;51097;51.984;5.650;2022-11-15T04:43:47;14.30;99.90
44823;DHT22;51097;51.984;5.650;2022-11-15T04:46:12;14.20;99.90
44823;DHT22;51097;51.984;5.650;2022-11-15T04:48:38;14.30;99.90
44823;DHT22;51097;51.984;5.650;2022-11-15T04:51:04;14.30;99.90
44823;DHT22;51097;51.984;5.650;2022-11-15T04:53:29;14.30;99.90
44823;DHT22;51097;51.984;5.650;2022-11-15T04:55:55;14.30;99.90
44823;DHT22;51097;51.984;5.650;2022-11-15T04:58:20;14.30;99.90
44823;DHT22;51097;51.984;5.650;2022-11-15T05:00:46;14.30;99.90
44823;DHT22;51097;51.984;5.650;2022-11-15T05:03:11;14.40;99.90
44823;DHT22;51097;51.984;5.650;2022-11-15T05:05:57;14.40;99.90
44823;DHT22;51097;51.984;5.650;2022-11-15T05:08:23;14.40;99.90
44823;DHT22;51097;51.984;5.650;2022-11-15T05:10:49;14.40;99.90
44823;DHT22;51097;51.984;5.650;2022-11-15T05:13:14;14.40;99.90
44823;DHT22;51097;51.984;5.650;2022-11-15T05:15:40;14.30;99.90
44823;DHT22;51097;51.984;5.650;2022-11-15T05:18:06;14.40;99.90
44823;DHT22;51097;51.984;5.650;2022-11-15T05:20:31;14.40;99.90
44823;DHT22;51097;51.984;5.650;2022-11-15T05:22:57;14.50;99.90
44823;DHT22;51097;51.984;5.650;2022-11-15T05:25:22;14.50;99.90
44823;DHT22;51097;51.984;5.650;2022-11-15T05:27:48;14.40;99.90
44823;DHT22;51097;51.984;5.650;2022-11-15T05:30:15;14.60;99.90
44823;DHT22;51097;51.984;5.650;2022-11-15T05:32:41;14.60;99.90
44823;DHT22;51097;51.984;5.650;2022-11-15T05:35:08;14.60;99.90
44823;DHT22;51097;51.984;5.650;2022-11-15T05:37:37;14.60;99.90
44823;DHT22;51097;51.984;5.650;2022-11-15T05:40:03;14.60;99.90
44823;DHT22;51097;51.984;5.650;2022-11-15T05:42:29;14.60;99.90
44823;DHT22;51097;51.984;5.650;2022-11-15T05:44:57;14.50;99.90
44823;DHT22;51097;51.984;5.650;2022-11-15T05:47:26;14.50;99.90
44823;DHT22;51097;51.984;5.650;2022-11-15T05:49:53;14.60;99.90
44823;DHT22;51097;51.984;5.650;2022-11-15T05:52:22;14.60;99.90
44823;DHT22;51097;51.984;5.650;2022-11-15T05:54:49;14.60;99.90
44823;DHT22;51097;51.984;5.650;2022-11-15T05:57:15;14.70;99.90
44823;DHT22;51097;51.984;5.650;2022-11-15T05:59:42;14.70;99.90
44823;DHT22;51097;51.984;5.650;2022-11-15T06:02:09;14.70;99.90
44823;DHT22;51097;51.984;5.650;2022-11-15T06:04:35;14.70;99.90
44823;DHT22;51097;51.984;5.650;2022-11-15T06:07:00;14.70;99.90
44823;DHT22;51097;51.984;5.650;2022-11-15T06:09:26;14.70;99.90
44823;DHT22;51097;51.984;5.650;2022-11-15T06:11:51;14.60;99.90
44823;DHT22;51097;51.984;5.650;2022-11-15T06:14:17;14.70;99.90
44823;DHT22;51097;51.984;5.650;2022-11-15T06:16:43;14.70;99.90
44823;DHT22;51097;51.984;5.650;2022-11-15T06:19:09;14.80;99.90
44823;DHT22;51097;51.984;5.650;2022-11-15T06:21:37;14.80;99.90
44823;DHT22;51097;51.984;5.650;2022-11-15T06:24:02;14.90;99.90
44823;DHT22;51097;51.984;5.650;2022-11-15T06:26:31;14.90;99.90
44823;DHT22;51097;51.984;5.650;2022-11-15T06:28:59;15.00;99.90
44823;DHT22;51097;51.984;5.650;2022-11-15T06:31:25;15.00;99.90
44823;DHT22;51097;51.984;5.650;2022-11-15T06:33:52;15.10;99.90
44823;DHT22;51097;51.984;5.650;2022-11-15T06:36:18;15.00;99.90
44823;DHT22;51097;51.984;5.650;2022-11-15T06:38:44;15.00;99.90
44823;DHT22;51097;51.984;5.650;2022-11-15T06:41:11;15.00;99.90
44823;DHT22;51097;51.984;5.650;2022-11-15T06:43:40;15.00;99.90
44823;DHT22;51097;51.984;5.650;2022-11-15T07:06:33;15.10;99.90
44823;DHT22;51097;51.984;5.650;2022-11-15T07:08:59;15.10;99.90
44823;DHT22;51097;51.984;5.650;2022-11-15T07:11:25;15.00;99.90
44823;DHT22;51097;51.984;5.650;2022-11-15T07:13:50;15.00;99.90
44823;DHT22;51097;51.984;5.650;2022-11-15T07:16:16;15.10;99.90
44823;DHT22;51097;51.984;5.650;2022-11-15T07:18:41;15.10;99.90
44823;DHT22;51097;51.984;5.650;2022-11-15T07:21:09;15.10;99.90
44823;DHT22;51097;51.984;5.650;2022-11-15T07:23:39;15.10;99.90
44823;DHT22;51097;51.984;5.650;2022-11-15T07:26:05;15.20;99.90
44823;DHT22;51097;51.984;5.650;2022-11-15T07:28:31;15.20;99.90
44823;DHT22;51097;51.984;5.650;2022-11-15T07:30:57;15.10;99.90
44823;DHT22;51097;51.984;5.650;2022-11-15T07:33:22;15.20;99.90
44823;DHT22;51097;51.984;5.650;2022-11-15T07:35:48;15.20;99.90
44823;DHT22;51097;51.984;5.650;2022-11-15T07:38:13;15.20;99.90
44823;DHT22;51097;51.984;5.650;2022-11-15T07:40:40;15.10;99.90
44823;DHT22;51097;51.984;5.650;2022-11-15T07:43:07;15.20;99.90
44823;DHT22;51097;51.984;5.650;2022-11-15T07:45:33;15.20;99.90
44823;DHT22;51097;51.984;5.650;2022-11-15T07:48:00;15.10;99.90
44823;DHT22;51097;51.984;5.650;2022-11-15T07:50:26;15.10;99.90
44823;DHT22;51097;51.984;5.650;2022-11-15T07:52:58;15.10;99.90
44823;DHT22;51097;51.984;5.650;2022-11-15T07:55:25;15.40;99.90
44823;DHT22;51097;51.984;5.650;2022-11-15T07:57:51;15.20;99.90
44823;DHT22;51097;51.984;5.650;2022-11-15T08:00:17;15.10;99.90
44823;DHT22;51097;51.984;5.650;2022-11-15T08:02:43;15.20;99.90
44823;DHT22;51097;51.984;5.650;2022-11-15T08:05:09;15.20;99.90
44823;DHT22;51097;51.984;5.650;2022-11-15T08:07:34;15.20;99.90
44823;DHT22;51097;51.984;5.650;2022-11-15T08:10:00;15.30;99.90
44823;DHT22;51097;51.984;5.650;2022-11-15T08:12:27;15.20;99.90
44823;DHT22;51097;51.984;5.650;2022-11-15T08:14:54;15.30;99.90
44823;DHT22;51097;51.984;5.650;2022-11-15T08:17:20;15.40;99.90
44823;DHT22;51097;51.984;5.650;2022-11-15T08:19:46;15.30;99.90
44823;DHT22;51097;51.984;5.650;2022-11-15T08:22:11;15.30;99.90
44823;DHT22;51097;51.984;5.650;2022-11-15T08:24:37;15.30;99.90
44823;DHT22;51097;51.984;5.650;2022-11-15T08:27:02;15.20;99.90
44823;DHT22;51097;51.984;5.650;2022-11-15T08:29:28;15.30;99.90
44823;DHT22;51097;51.984;5.650;2022-11-15T08:31:55;15.30;99.90
44823;DHT22;51097;51.984;5.650;2022-11-15T08:34:21;15.30;99.90
44823;DHT22;51097;51.984;5.650;2022-11-15T08:36:47;15.50;99.90
44823;DHT22;51097;51.984;5.650;2022-11-15T08:39:12;15.40;99.90
44823;DHT22;51097;51.984;5.650;2022-11-15T08:41:38;15.50;99.90
44823;DHT22;51097;51.984;5.650;2022-11-15T08:44:04;15.50;99.90
44823;DHT22;51097;51.984;5.650;2022-11-15T08:46:30;15.50;99.90
44823;DHT22;51097;51.984;5.650;2022-11-15T08:48:55;15.50;99.90
44823;DHT22;51097;51.984;5.650;2022-11-15T08:51:21;15.50;99.90
44823;DHT22;51097;51.984;5.650;2022-11-15T08:53:46;15.60;99.90
44823;DHT22;51097;51.984;5.650;2022-11-15T08:56:14;15.50;99.90
44823;DHT22;51097;51.984;5.650;2022-11-15T08:58:40;15.50;99.90
44823;DHT22;51097;51.984;5.650;2022-11-15T09:01:06;15.60;99.90
44823;DHT22;51097;51.984;5.650;2022-11-15T09:03:31;15.40;99.90
44823;DHT22;51097;51.984;5.650;2022-11-15T09:05:59;15.50;99.90
44823;DHT22;51097;51.984;5.650;2022-11-15T09:08:28;15.50;99.90
44823;DHT22;51097;51.984;5.650;2022-11-15T09:10:54;15.40;99.90
44823;DHT22;51097;51.984;5.650;2022-11-15T09:13:20;15.50;99.90
44823;DHT22;51097;51.984;5.650;2022-11-15T09:15:45;15.60;99.90
44823;DHT22;51097;51.984;5.650;2022-11-15T09:18:11;15.50;99.90
44823;DHT22;51097;51.984;5.650;2022-11-15T09:20:36;15.50;99.90
44823;DHT22;51097;51.984;5.650;2022-11-15T09:23:04;15.40;99.90
44823;DHT22;51097;51.984;5.650;2022-11-15T09:25:30;15.50;99.90
44823;DHT22;51097;51.984;5.650;2022-11-15T09:27:56;15.70;99.90
44823;DHT22;51097;51.984;5.650;2022-11-15T09:30:22;15.50;99.90
44823;DHT22;51097;51.984;5.650;2022-11-15T09:32:48;15.60;99.90
44823;DHT22;51097;51.984;5.650;2022-11-15T09:35:14;15.60;99.90
44823;DHT22;51097;51.984;5.650;2022-11-15T09:37:39;15.50;99.90
44823;DHT22;51097;51.984;5.650;2022-11-15T09:40:06;15.50;99.90
44823;DHT22;51097;51.984;5.650;2022-11-15T09:45:18;15.30;99.90
44823;DHT22;51097;51.984;5.650;2022-11-15T09:48:08;15.30;99.90
44823;DHT22;51097;51.984;5.650;2022-11-15T09:50:44;15.40;99.90
44823;DHT22;51097;51.984;5.650;2022-11-15T09:53:29;15.40;99.90
44823;DHT22;51097;51.984;5.650;2022-11-15T09:56:03;15.40;99.90
44823;DHT22;51097;51.984;5.650;2022-11-15T09:58:36;15.30;99.90
44823;DHT22;51097;51.984;5.650;2022-11-15T10:01:13;15.50;99.90
44823;DHT22;51097;51.984;5.650;2022-11-15T10:03:41;15.40;99.90
44823;DHT22;51097;51.984;5.650;2022-11-15T10:06:23;15.30;99.90
44823;DHT22;51097;51.984;5.650;2022-11-15T10:11:40;15.50;99.90
44823;DHT22;51097;51.984;5.650;2022-11-15T10:14:17;15.50;99.90
44823;DHT22;51097;51.984;5.650;2022-11-15T10:22:44;15.50;99.90
44823;DHT22;51097;51.984;5.650;2022-11-15T10:25:25;15.20;99.90
44823;DHT22;51097;51.984;5.650;2022-11-15T10:27:59;15.20;99.90
44823;DHT22;51097;51.984;5.650;2022-11-15T10:30:35;15.30;99.90
44823;DHT22;51097;51.984;5.650;2022-11-15T10:33:23;15.30;99.90
44823;DHT22;51097;51.984;5.650;2022-11-15T10:41:14;15.30;99.90
44823;DHT22;51097;51.984;5.650;2022-11-15T10:43:40;15.40;99.90
44823;DHT22;51097;51.984;5.650;2022-11-15T10:46:21;15.40;99.90
44823;DHT22;51097;51.984;5.650;2022-11-15T10:48:46;15.60;99.90
44823;DHT22;51097;51.984;5.650;2022-11-15T10:51:27;15.50;99.90
44823;DHT22;51097;51.984;5.650;2022-11-15T10:53:57;15.60;99.90
44823;DHT22;51097;51.984;5.650;2022-11-15T10:56:26;15.70;99.90
44823;DHT22;51097;51.984;5.650;2022-11-15T10:58:58;15.70;99.90
44823;DHT22;51097;51.984;5.650;2022-11-15T11:01:28;15.70;99.90
44823;DHT22;51097;51.984;5.650;2022-11-15T11:06:26;15.80;99.90
44823;DHT22;51097;51.984;5.650;2022-11-15T11:09:04;15.80;99.90
44823;DHT22;51097;51.984;5.650;2022-11-15T11:11:51;15.90;99.90
44823;DHT22;51097;51.984;5.650;2022-11-15T11:14:21;15.80;99.90
44823;DHT22;51097;51.984;5.650;2022-11-15T11:23:29;15.70;99.90
44823;DHT22;51097;51.984;5.650;2022-11-15T11:25:34;15.70;99.90
44823;DHT22;51097;51.984;5.650;2022-11-15T11:33:19;15.90;99.90
44823;DHT22;51097;51.984;5.650;2022-11-15T11:41:37;15.80;99.90
44823;DHT22;51097;51.984;5.650;2022-11-15T11:44:24;15.70;99.90
44823;DHT22;51097;51.984;5.650;2022-11-15T11:52:31;15.90;99.90
44823;DHT22;51097;51.984;5.650;2022-11-15T11:55:22;15.80;99.90
44823;DHT22;51097;51.984;5.650;2022-11-15T11:58:03;15.70;99.90
44823;DHT22;51097;51.984;5.650;2022-11-15T12:00:31;15.80;99.90
44823;DHT22;51097;51.984;5.650;2022-11-15T12:06:27;15.90;99.90
44823;DHT22;51097;51.984;5.650;2022-11-15T12:08:57;16.00;99.90
44823;DHT22;51097;51.984;5.650;2022-11-15T12:11:37;16.00;99.90
44823;DHT22;51097;51.984;5.650;2022-11-15T12:14:05;16.10;99.90
44823;DHT22;51097;51.984;5.650;2022-11-15T12:16:33;16.10;99.90
44823;DHT22;51097;51.984;5.650;2022-11-15T12:19:01;16.10;99.90
44823;DHT22;51097;51.984;5.650;2022-11-15T12:24:04;16.30;99.90
44823;DHT22;51097;51.984;5.650;2022-11-15T12:26:37;16.20;99.90
44823;DHT22;51097;51.984;5.650;2022-11-15T12:29:16;16.10;99.90
44823;DHT22;51097;51.984;5.650;2022-11-15T12:31:48;16.20;99.90
44823;DHT22;51097;51.984;5.650;2022-11-15T12:36:49;16.20;99.90
44823;DHT22;51097;51.984;5.650;2022-11-15T12:39:16;16.10;99.90
44823;DHT22;51097;51.984;5.650;2022-11-15T12:52:03;16.40;99.90
44823;DHT22;51097;51.984;5.650;2022-11-15T12:59:50;16.60;99.90
44823;DHT22;51097;51.984;5.650;2022-11-15T13:17:45;16.80;99.90
44823;DHT22;51097;51.984;5.650;2022-11-15T13:20:21;16.80;99.90
44823;DHT22;51097;51.984;5.650;2022-11-15T13:22:53;16.80;99.90
44823;DHT22;51097;51.984;5.650;2022-11-15T13:26:06;16.80;99.90
44823;DHT22;51097;51.984;5.650;2022-11-15T13:28:43;16.80;99.90
44823;DHT22;51097;51.984;5.650;2022-11-15T13:31:30;16.80;99.90
44823;DHT22;51097;51.984;5.650;2022-11-15T13:34:27;16.80;99.90
44823;DHT22;51097;51.984;5.650;2022-11-15T13:36:53;16.80;99.90
44823;DHT22;51097;51.984;5.650;2022-11-15T13:41:52;16.90;99.90
44823;DHT22;51097;51.984;5.650;2022-11-15T13:44:24;16.70;99.90
44823;DHT22;51097;51.984;5.650;2022-11-15T13:47:12;16.70;99.90
44823;DHT22;51097;51.984;5.650;2022-11-15T13:49:38;16.80;99.90
44823;DHT22;51097;51.984;5.650;2022-11-15T13:52:07;16.80;99.90
44823;DHT22;51097;51.984;5.650;2022-11-15T13:54:43;16.80;99.90
44823;DHT22;51097;51.984;5.650;2022-11-15T13:57:14;16.80;99.90
44823;DHT22;51097;51.984;5.650;2022-11-15T14:02:56;16.60;99.90
44823;DHT22;51097;51.984;5.650;2022-11-15T14:05:24;16.50;99.90
44823;DHT22;51097;51.984;5.650;2022-11-15T14:07:58;16.50;99.90
44823;DHT22;51097;51.984;5.650;2022-11-15T14:10:35;16.40;99.90
44823;DHT22;51097;51.984;5.650;2022-11-15T14:13:02;16.40;99.90
44823;DHT22;51097;51.984;5.650;2022-11-15T14:15:32;16.40;99.90
44823;DHT22;51097;51.984;5.650;2022-11-15T14:17:58;16.40;99.90
44823;DHT22;51097;51.984;5.650;2022-11-15T14:20:27;16.30;99.90
44823;DHT22;51097;51.984;5.650;2022-11-15T14:22:59;16.40;99.90
44823;DHT22;51097;51.984;5.650;2022-11-15T14:25:27;16.30;99.90
44823;DHT22;51097;51.984;5.650;2022-11-15T14:28:31;16.20;99.90
44823;DHT22;51097;51.984;5.650;2022-11-15T14:30:58;16.10;99.90
44823;DHT22;51097;51.984;5.650;2022-11-15T14:33:34;16.10;99.90
44823;DHT22;51097;51.984;5.650;2022-11-15T14:36:11;16.10;99.90
44823;DHT22;51097;51.984;5.650;2022-11-15T14:38:37;15.80;99.90
44823;DHT22;51097;51.984;5.650;2022-11-15T14:41:03;15.90;99.90
44823;DHT22;51097;51.984;5.650;2022-11-15T14:43:29;15.80;99.90
44823;DHT22;51097;51.984;5.650;2022-11-15T14:45:54;15.80;99.90
44823;DHT22;51097;51.984;5.650;2022-11-15T14:48:20;15.80;99.90
44823;DHT22;51097;51.984;5.650;2022-11-15T14:50:47;16.00;99.90
44823;DHT22;51097;51.984;5.650;2022-11-15T14:53:17;15.90;99.90
44823;DHT22;51097;51.984;5.650;2022-11-15T14:55:43;15.90;99.90
44823;DHT22;51097;51.984;5.650;2022-11-15T14:58:09;15.80;99.90
44823;DHT22;51097;51.984;5.650;2022-11-15T15:00:37;15.90;99.90
44823;DHT22;51097;51.984;5.650;2022-11-15T15:03:03;15.80;99.90
44823;DHT22;51097;51.984;5.650;2022-11-15T15:05:35;15.80;99.90
44823;DHT22;51097;51.984;5.650;2022-11-15T15:08:01;15.80;99.90
44823;DHT22;51097;51.984;5.650;2022-11-15T15:10:38;15.70;99.90
44823;DHT22;51097;51.984;5.650;2022-11-15T15:13:05;15.60;99.90
44823;DHT22;51097;51.984;5.650;2022-11-15T15:15:37;15.70;99.90
44823;DHT22;51097;51.984;5.650;2022-11-15T15:18:04;15.70;99.90
44823;DHT22;51097;51.984;5.650;2022-11-15T15:20:34;15.80;99.90
44823;DHT22;51097;51.984;5.650;2022-11-15T15:23:00;15.70;99.90
44823;DHT22;51097;51.984;5.650;2022-11-15T15:25:31;15.90;99.90
44823;DHT22;51097;51.984;5.650;2022-11-15T15:28:00;15.80;99.90
44823;DHT22;51097;51.984;5.650;2022-11-15T15:30:28;15.60;99.90
44823;DHT22;51097;51.984;5.650;2022-11-15T15:32:54;15.60;99.90
44823;DHT22;51097;51.984;5.650;2022-11-15T15:35:20;15.50;99.90
44823;DHT22;51097;51.984;5.650;2022-11-15T15:37:47;15.40;99.90
44823;DHT22;51097;51.984;5.650;2022-11-15T15:40:18;15.50;99.90
44823;DHT22;51097;51.984;5.650;2022-11-15T15:42:46;15.40;99.90
44823;DHT22;51097;51.984;5.650;2022-11-15T15:45:11;15.50;99.90
44823;DHT22;51097;51.984;5.650;2022-11-15T15:47:37;15.40;99.90
44823;DHT22;51097;51.984;5.650;2022-11-15T15:52:49;15.40;99.90
44823;DHT22;51097;51.984;5.650;2022-11-15T15:55:15;15.30;99.90
44823;DHT22;51097;51.984;5.650;2022-11-15T15:57:41;15.30;99.90
44823;DHT22;51097;51.984;5.650;2022-11-15T16:00:07;15.30;99.90
44823;DHT22;51097;51.984;5.650;2022-11-15T16:02:33;15.40;99.90
44823;DHT22;51097;51.984;5.650;2022-11-15T16:04:58;15.30;99.90
44823;DHT22;51097;51.984;5.650;2022-11-15T16:07:24;15.30;99.90
44823;DHT22;51097;51.984;5.650;2022-11-15T16:09:50;15.20;99.90
44823;DHT22;51097;51.984;5.650;2022-11-15T16:12:31;15.30;99.90
44823;DHT22;51097;51.984;5.650;2022-11-15T16:14:57;15.40;99.90
44823;DHT22;51097;51.984;5.650;2022-11-15T16:17:26;15.40;99.90
44823;DHT22;51097;51.984;5.650;2022-11-15T16:19:52;15.50;99.90
44823;DHT22;51097;51.984;5.650;2022-11-15T16:22:17;15.40;99.90
44823;DHT22;51097;51.984;5.650;2022-11-15T16:24:43;15.50;99.90
44823;DHT22;51097;51.984;5.650;2022-11-15T16:27:16;15.30;99.90
44823;DHT22;51097;51.984;5.650;2022-11-15T16:29:42;15.30;99.90
44823;DHT22;51097;51.984;5.650;2022-11-15T16:32:08;15.50;99.90
44823;DHT22;51097;51.984;5.650;2022-11-15T16:34:34;15.50;99.90
44823;DHT22;51097;51.984;5.650;2022-11-15T16:36:59;15.50;99.90
44823;DHT22;51097;51.984;5.650;2022-11-15T16:39:25;15.40;99.90
44823;DHT22;51097;51.984;5.650;2022-11-15T16:41:53;15.40;99.90
44823;DHT22;51097;51.984;5.650;2022-11-15T16:44:18;15.40;99.90
44823;DHT22;51097;51.984;5.650;2022-11-15T16:46:44;15.50;99.90
44823;DHT22;51097;51.984;5.650;2022-11-15T16:49:17;15.50;99.90
44823;DHT22;51097;51.984;5.650;2022-11-15T16:51:47;15.50;99.90
44823;DHT22;51097;51.984;5.650;2022-11-15T16:54:13;15.50;99.90
44823;DHT22;51097;51.984;5.650;2022-11-15T16:56:39;15.50;99.90
44823;DHT22;51097;51.984;5.650;2022-11-15T16:59:05;15.50;99.90
44823;DHT22;51097;51.984;5.650;2022-11-15T17:01:36;15.60;99.90
44823;DHT22;51097;51.984;5.650;2022-11-15T17:04:11;15.60;99.90
44823;DHT22;51097;51.984;5.650;2022-11-15T17:06:41;15.70;99.90
44823;DHT22;51097;51.984;5.650;2022-11-15T17:09:20;15.70;99.90
44823;DHT22;51097;51.984;5.650;2022-11-15T17:11:48;15.70;99.90
44823;DHT22;51097;51.984;5.650;2022-11-15T17:14:15;15.70;99.90
44823;DHT22;51097;51.984;5.650;2022-11-15T17:16:41;15.80;99.90
44823;DHT22;51097;51.984;5.650;2022-11-15T17:19:13;15.80;99.90
44823;DHT22;51097;51.984;5.650;2022-11-15T17:21:40;15.80;99.90
44823;DHT22;51097;51.984;5.650;2022-11-15T17:24:06;15.90;99.90
44823;DHT22;51097;51.984;5.650;2022-11-15T17:26:31;15.90;99.90
44823;DHT22;51097;51.984;5.650;2022-11-15T17:28:57;15.90;99.90
44823;DHT22;51097;51.984;5.650;2022-11-15T17:31:25;15.90;99.90
44823;DHT22;51097;51.984;5.650;2022-11-15T17:33:51;15.90;99.90
44823;DHT22;51097;51.984;5.650;2022-11-15T17:36:16;15.90;99.90
44823;DHT22;51097;51.984;5.650;2022-11-15T17:38:43;15.90;99.90
44823;DHT22;51097;51.984;5.650;2022-11-15T17:41:12;15.90;99.90
44823;DHT22;51097;51.984;5.650;2022-11-15T17:43:38;15.90;99.90
44823;DHT22;51097;51.984;5.650;2022-11-15T17:46:10;15.80;99.90
44823;DHT22;51097;51.984;5.650;2022-11-15T17:48:41;15.90;99.90
44823;DHT22;51097;51.984;5.650;2022-11-15T17:51:12;15.90;99.90